createdAt,value
2018-08-07T00:00:03.124Z,998.17
2018-08-07T00:01:03.125Z,998.18
2018-08-07T00:02:03.126Z,998.15
2018-08-07T00:03:03.129Z,998.17
2018-08-07T00:04:03.135Z,998.12
2018-08-07T00:05:03.133Z,998.10
2018-08-07T00:06:03.137Z,998.11
2018-08-07T00:07:03.147Z,998.08
2018-08-07T00:08:03.142Z,998.10
2018-08-07T00:09:03.150Z,998.10
2018-08-07T00:10:03.154Z,998.09
2018-08-07T00:11:03.150Z,998.07
2018-08-07T00:12:03.153Z,998.07
2018-08-07T00:13:03.236Z,998.05
2018-08-07T00:14:03.162Z,998.05
2018-08-07T00:15:03.160Z,998.09
2018-08-07T00:16:03.163Z,998.04
2018-08-07T00:17:03.165Z,998.08
2018-08-07T00:18:03.168Z,998.09
2018-08-07T00:19:03.173Z,998.07
2018-08-07T00:20:03.173Z,998.06
2018-08-07T00:21:03.178Z,998.05
2018-08-07T00:22:03.232Z,998.05
2018-08-07T00:23:03.181Z,998.04
2018-08-07T00:24:03.183Z,998.03
2018-08-07T00:25:03.192Z,998.00
2018-08-07T00:26:03.191Z,998.02
2018-08-07T00:27:03.191Z,998.02
2018-08-07T00:28:03.193Z,998.02
2018-08-07T00:29:03.200Z,998.01
2018-08-07T00:30:03.201Z,998.02
2018-08-07T00:31:03.199Z,998.00
2018-08-07T00:32:03.203Z,997.99
2018-08-07T00:33:03.209Z,997.98
2018-08-07T00:34:03.207Z,998.00
2018-08-07T00:35:03.215Z,997.98
2018-08-07T00:36:03.224Z,997.98
2018-08-07T00:37:03.221Z,997.97
2018-08-07T00:38:03.220Z,997.93
2018-08-07T00:39:03.219Z,998.00
2018-08-07T00:40:03.222Z,997.95
2018-08-07T00:41:03.238Z,997.94
2018-08-07T00:42:03.226Z,997.94
2018-08-07T00:43:03.229Z,997.94
2018-08-07T00:44:03.234Z,997.86
2018-08-07T00:45:03.236Z,997.83
2018-08-07T00:46:03.238Z,997.85
2018-08-07T00:47:03.290Z,997.83
2018-08-07T00:48:03.242Z,997.83
2018-08-07T00:49:03.244Z,997.80
2018-08-07T00:50:03.251Z,997.82
2018-08-07T00:51:03.247Z,997.84
2018-08-07T00:52:03.249Z,997.84
2018-08-07T00:53:03.255Z,997.82
2018-08-07T00:54:03.255Z,997.82
2018-08-07T00:55:03.258Z,997.84
2018-08-07T00:56:03.259Z,997.84
2018-08-07T00:57:03.263Z,997.84
2018-08-07T00:58:03.271Z,997.86
2018-08-07T00:59:03.265Z,997.84
2018-08-07T01:00:03.267Z,997.81
2018-08-07T01:01:03.276Z,997.83
2018-08-07T01:02:03.275Z,997.83
2018-08-07T01:03:03.276Z,997.83
2018-08-07T01:04:03.284Z,997.88
2018-08-07T01:05:03.281Z,997.86
2018-08-07T01:06:03.282Z,997.88
2018-08-07T01:07:03.317Z,997.80
2018-08-07T01:08:03.292Z,997.83
2018-08-07T01:09:03.291Z,997.81
2018-08-07T01:10:03.301Z,997.80
2018-08-07T01:11:03.293Z,997.79
2018-08-07T01:12:03.299Z,997.82
2018-08-07T01:13:03.297Z,997.81
2018-08-07T01:14:03.308Z,997.81
2018-08-07T01:15:03.303Z,997.83
2018-08-07T01:16:03.305Z,997.77
2018-08-07T01:17:03.307Z,997.78
2018-08-07T01:18:03.308Z,997.79
2018-08-07T01:19:03.312Z,997.77
2018-08-07T01:20:03.318Z,997.79
2018-08-07T01:21:03.316Z,997.78
2018-08-07T01:22:03.319Z,997.77
2018-08-07T01:23:03.322Z,997.77
2018-08-07T01:24:03.322Z,997.79
2018-08-07T01:25:03.333Z,997.75
2018-08-07T01:26:03.326Z,997.73
2018-08-07T01:27:03.367Z,997.72
2018-08-07T01:28:03.331Z,997.74
2018-08-07T01:29:03.332Z,997.71
2018-08-07T01:30:03.334Z,997.72
2018-08-07T01:31:03.338Z,997.71
2018-08-07T01:32:03.345Z,997.68
2018-08-07T01:33:03.342Z,997.71
2018-08-07T01:34:03.347Z,997.70
2018-08-07T01:35:03.345Z,997.70
2018-08-07T01:36:03.352Z,997.67
2018-08-07T01:37:03.351Z,997.69
2018-08-07T01:38:03.350Z,997.67
2018-08-07T01:39:03.352Z,997.69
2018-08-07T01:40:03.356Z,997.67
2018-08-07T01:41:03.359Z,997.63
2018-08-07T01:42:03.360Z,997.65
2018-08-07T01:43:03.363Z,997.64
2018-08-07T01:44:03.363Z,997.65
2018-08-07T01:45:03.367Z,997.63
2018-08-07T01:46:03.368Z,997.64
2018-08-07T01:47:03.368Z,997.61
2018-08-07T01:48:03.370Z,997.61
2018-08-07T01:49:03.375Z,997.62
2018-08-07T01:50:03.375Z,997.58
2018-08-07T01:51:03.377Z,997.60
2018-08-07T01:52:03.377Z,997.58
2018-08-07T01:53:03.383Z,997.61
2018-08-07T01:54:03.383Z,997.57
2018-08-07T01:55:03.385Z,997.58
2018-08-07T01:56:03.391Z,997.56
2018-08-07T01:57:03.396Z,997.56
2018-08-07T01:58:03.391Z,997.56
2018-08-07T01:59:03.392Z,997.49
2018-08-07T02:00:03.394Z,997.49
2018-08-07T02:01:03.396Z,997.52
2018-08-07T02:02:03.398Z,997.51
2018-08-07T02:03:03.400Z,997.48
2018-08-07T02:04:03.403Z,997.51
2018-08-07T02:05:03.409Z,997.48
2018-08-07T02:06:03.406Z,997.49
2018-08-07T02:07:03.408Z,997.45
2018-08-07T02:08:03.411Z,997.48
2018-08-07T02:09:03.417Z,997.48
2018-08-07T02:10:03.419Z,997.49
2018-08-07T02:11:03.418Z,997.46
2018-08-07T02:12:03.435Z,997.44
2018-08-07T02:13:03.428Z,997.49
2018-08-07T02:14:03.425Z,997.49
2018-08-07T02:15:03.428Z,997.49
2018-08-07T02:16:03.428Z,997.49
2018-08-07T02:17:03.433Z,997.48
2018-08-07T02:18:03.432Z,997.43
2018-08-07T02:19:03.440Z,997.44
2018-08-07T02:20:03.435Z,997.46
2018-08-07T02:21:03.439Z,997.45
2018-08-07T02:22:03.442Z,997.47
2018-08-07T02:23:03.441Z,997.45
2018-08-07T02:24:03.445Z,997.44
2018-08-07T02:25:03.447Z,997.44
2018-08-07T02:26:03.450Z,997.44
2018-08-07T02:27:03.451Z,997.41
2018-08-07T02:28:03.454Z,997.43
2018-08-07T02:29:03.529Z,997.40
2018-08-07T02:30:03.457Z,997.44
2018-08-07T02:31:03.459Z,997.42
2018-08-07T02:32:03.463Z,997.42
2018-08-07T02:33:03.463Z,997.40
2018-08-07T02:34:03.464Z,997.41
2018-08-07T02:35:03.466Z,997.43
2018-08-07T02:36:03.469Z,997.42
2018-08-07T02:37:03.477Z,997.43
2018-08-07T02:38:03.473Z,997.42
2018-08-07T02:39:03.475Z,997.41
2018-08-07T02:40:03.478Z,997.39
2018-08-07T02:41:03.483Z,997.39
2018-08-07T02:42:03.506Z,997.41
2018-08-07T02:43:03.507Z,997.42
2018-08-07T02:44:03.493Z,997.37
2018-08-07T02:45:03.488Z,997.35
2018-08-07T02:46:03.490Z,997.36
2018-08-07T02:47:03.492Z,997.36
2018-08-07T02:48:03.494Z,997.34
2018-08-07T02:49:03.497Z,997.33
2018-08-07T02:50:03.499Z,997.34
2018-08-07T02:51:03.503Z,997.33
2018-08-07T02:52:03.502Z,997.33
2018-08-07T02:53:03.505Z,997.37
2018-08-07T02:54:03.506Z,997.36
2018-08-07T02:55:03.508Z,997.33
2018-08-07T02:56:03.515Z,997.32
2018-08-07T02:57:03.559Z,997.34
2018-08-07T02:58:03.514Z,997.34
2018-08-07T02:59:03.515Z,997.35
2018-08-07T03:00:03.522Z,997.37
2018-08-07T03:01:03.522Z,997.38
2018-08-07T03:02:03.523Z,997.41
2018-08-07T03:03:03.524Z,997.41
2018-08-07T03:04:03.526Z,997.37
2018-08-07T03:05:03.534Z,997.40
2018-08-07T03:06:03.539Z,997.39
2018-08-07T03:07:03.538Z,997.41
2018-08-07T03:08:03.597Z,997.44
2018-08-07T03:09:03.536Z,997.43
2018-08-07T03:10:03.538Z,997.44
2018-08-07T03:11:03.540Z,997.43
2018-08-07T03:12:03.541Z,997.45
2018-08-07T03:13:03.543Z,997.40
2018-08-07T03:14:03.544Z,997.42
2018-08-07T03:15:03.550Z,997.41
2018-08-07T03:16:03.552Z,997.42
2018-08-07T03:17:03.551Z,997.42
2018-08-07T03:18:39.227Z,997.44
2018-08-07T03:19:03.557Z,997.46
2018-08-07T03:20:03.558Z,997.46
2018-08-07T03:21:03.560Z,997.49
2018-08-07T03:22:03.558Z,997.51
2018-08-07T03:23:03.576Z,997.49
2018-08-07T03:24:03.562Z,997.46
2018-08-07T03:25:03.568Z,997.48
2018-08-07T03:26:03.567Z,997.45
2018-08-07T03:27:03.570Z,997.48
2018-08-07T03:28:03.572Z,997.48
2018-08-07T03:29:03.573Z,997.49
2018-08-07T03:30:03.573Z,997.47
2018-08-07T03:31:03.575Z,997.54
2018-08-07T03:32:03.576Z,997.50
2018-08-07T03:33:03.580Z,997.53
2018-08-07T03:34:03.579Z,997.55
2018-08-07T03:35:03.583Z,997.58
2018-08-07T03:36:03.583Z,997.58
2018-08-07T03:37:03.585Z,997.57
2018-08-07T03:38:03.591Z,997.59
2018-08-07T03:39:03.589Z,997.61
2018-08-07T03:40:03.592Z,997.60
2018-08-07T03:41:03.598Z,997.59
2018-08-07T03:42:03.593Z,997.58
2018-08-07T03:43:03.596Z,997.59
2018-08-07T03:44:03.597Z,997.63
2018-08-07T03:45:03.599Z,997.63
2018-08-07T03:46:03.603Z,997.63
2018-08-07T03:47:03.601Z,997.64
2018-08-07T03:48:03.609Z,997.64
2018-08-07T03:49:03.606Z,997.63
2018-08-07T03:50:03.610Z,997.63
2018-08-07T03:51:03.609Z,997.64
2018-08-07T03:52:03.611Z,997.66
2018-08-07T03:53:03.666Z,997.62
2018-08-07T03:54:03.614Z,997.66
2018-08-07T03:55:03.617Z,997.64
2018-08-07T03:56:03.624Z,997.62
2018-08-07T03:57:03.620Z,997.64
2018-08-07T03:58:03.621Z,997.66
2018-08-07T03:59:03.640Z,997.66
2018-08-07T04:00:03.627Z,997.63
2018-08-07T04:01:03.627Z,997.65
2018-08-07T04:02:03.627Z,997.64
2018-08-07T04:03:03.630Z,997.69
2018-08-07T04:04:03.632Z,997.68
2018-08-07T04:05:03.740Z,997.69
2018-08-07T04:06:03.635Z,997.72
2018-08-07T04:07:03.636Z,997.70
2018-08-07T04:08:03.640Z,997.68
2018-08-07T04:09:03.641Z,997.71
2018-08-07T04:10:03.641Z,997.69
2018-08-07T04:11:03.660Z,997.66
2018-08-07T04:12:03.645Z,997.68
2018-08-07T04:13:03.648Z,997.67
2018-08-07T04:14:03.648Z,997.68
2018-08-07T04:15:03.651Z,997.64
2018-08-07T04:16:03.652Z,997.70
2018-08-07T04:17:03.655Z,997.68
2018-08-07T04:18:03.657Z,997.66
2018-08-07T04:19:03.661Z,997.67
2018-08-07T04:20:03.659Z,997.67
2018-08-07T04:21:03.667Z,997.68
2018-08-07T04:22:03.663Z,997.66
2018-08-07T04:23:03.672Z,997.64
2018-08-07T04:24:03.667Z,997.65
2018-08-07T04:25:03.671Z,997.65
2018-08-07T04:26:03.730Z,997.67
2018-08-07T04:27:03.678Z,997.71
2018-08-07T04:28:03.674Z,997.70
2018-08-07T04:29:03.677Z,997.70
2018-08-07T04:30:03.676Z,997.67
2018-08-07T04:31:03.679Z,997.67
2018-08-07T04:32:03.685Z,997.64
2018-08-07T04:33:03.684Z,997.63
2018-08-07T04:34:03.684Z,997.65
2018-08-07T04:35:03.688Z,997.62
2018-08-07T04:36:03.695Z,997.62
2018-08-07T04:37:03.692Z,997.63
2018-08-07T04:38:03.692Z,997.66
2018-08-07T04:39:03.695Z,997.65
2018-08-07T04:40:03.695Z,997.67
2018-08-07T04:41:03.697Z,997.65
2018-08-07T04:42:03.700Z,997.71
2018-08-07T04:43:03.699Z,997.67
2018-08-07T04:44:03.702Z,997.62
2018-08-07T04:45:03.712Z,997.64
2018-08-07T04:46:03.706Z,997.70
2018-08-07T04:47:03.710Z,997.65
2018-08-07T04:48:03.709Z,997.68
2018-08-07T04:49:03.711Z,997.62
2018-08-07T04:50:03.723Z,997.66
2018-08-07T04:51:03.715Z,997.65
2018-08-07T04:52:03.718Z,997.64
2018-08-07T04:53:03.721Z,997.64
2018-08-07T04:54:03.720Z,997.62
2018-08-07T04:55:03.727Z,997.62
2018-08-07T04:56:03.729Z,997.62
2018-08-07T04:57:03.728Z,997.61
2018-08-07T04:58:03.741Z,997.63
2018-08-07T04:59:03.734Z,997.62
2018-08-07T05:00:03.737Z,997.62
2018-08-07T05:01:03.737Z,997.58
2018-08-07T05:02:03.742Z,997.62
2018-08-07T05:03:03.753Z,997.62
2018-08-07T05:04:03.744Z,997.61
2018-08-07T05:05:03.751Z,997.57
2018-08-07T05:06:03.749Z,997.65
2018-08-07T05:07:03.750Z,997.61
2018-08-07T05:08:03.753Z,997.61
2018-08-07T05:09:03.757Z,997.62
2018-08-07T05:10:03.757Z,997.61
2018-08-07T05:11:03.760Z,997.69
2018-08-07T05:12:03.764Z,997.67
2018-08-07T05:13:03.765Z,997.68
2018-08-07T05:14:03.766Z,997.68
2018-08-07T05:15:03.768Z,997.68
2018-08-07T05:16:03.773Z,997.71
2018-08-07T05:17:03.773Z,997.68
2018-08-07T05:18:03.775Z,997.66
2018-08-07T05:19:03.780Z,997.67
2018-08-07T05:20:03.782Z,997.67
2018-08-07T05:21:03.782Z,997.68
2018-08-07T05:22:03.788Z,997.67
2018-08-07T05:23:03.789Z,997.66
2018-08-07T05:24:03.789Z,997.69
2018-08-07T05:25:03.794Z,997.67
2018-08-07T05:26:03.795Z,997.65
2018-08-07T05:27:03.801Z,997.66
2018-08-07T05:28:03.800Z,997.66
2018-08-07T05:29:03.802Z,997.69
2018-08-07T05:30:03.806Z,997.65
2018-08-07T05:31:03.807Z,997.66
2018-08-07T05:32:03.818Z,997.71
2018-08-07T05:33:03.814Z,997.66
2018-08-07T05:34:03.816Z,997.68
2018-08-07T05:35:03.822Z,997.70
2018-08-07T05:36:03.820Z,997.69
2018-08-07T05:37:03.823Z,997.68
2018-08-07T05:38:03.824Z,997.69
2018-08-07T05:39:03.827Z,997.65
2018-08-07T05:40:03.842Z,997.65
2018-08-07T05:41:03.836Z,997.69
2018-08-07T05:42:03.837Z,997.70
2018-08-07T05:43:03.862Z,997.64
2018-08-07T05:44:03.848Z,997.63
2018-08-07T05:45:03.846Z,997.62
2018-08-07T05:46:03.849Z,997.64
2018-08-07T05:47:03.853Z,997.63
2018-08-07T05:48:03.857Z,997.62
2018-08-07T05:49:03.859Z,997.57
2018-08-07T05:50:03.929Z,997.60
2018-08-07T05:51:04.196Z,997.64
2018-08-07T05:52:03.877Z,997.63
2018-08-07T05:53:03.990Z,997.65
2018-08-07T05:54:03.993Z,997.65
2018-08-07T05:55:03.905Z,997.62
2018-08-07T05:56:03.889Z,997.65
2018-08-07T05:57:03.893Z,997.60
2018-08-07T05:58:03.996Z,997.62
2018-08-07T05:59:03.897Z,997.60
2018-08-07T06:00:03.904Z,997.61
2018-08-07T06:01:03.909Z,997.58
2018-08-07T06:02:03.906Z,997.59
2018-08-07T06:03:03.910Z,997.57
2018-08-07T06:04:03.914Z,997.60
2018-08-07T06:05:03.924Z,997.60
2018-08-07T06:06:03.922Z,997.62
2018-08-07T06:07:03.925Z,997.61
2018-08-07T06:08:03.929Z,997.60
2018-08-07T06:09:03.932Z,997.61
2018-08-07T06:10:03.937Z,997.64
2018-08-07T06:11:03.939Z,997.64
2018-08-07T06:12:03.944Z,997.59
2018-08-07T06:13:03.949Z,997.62
2018-08-07T06:14:03.963Z,997.60
2018-08-07T06:15:03.955Z,997.60
2018-08-07T06:16:03.958Z,997.58
2018-08-07T06:17:03.961Z,997.57
2018-08-07T06:18:03.966Z,997.59
2018-08-07T06:19:04.028Z,997.61
2018-08-07T06:20:03.972Z,997.55
2018-08-07T06:21:03.976Z,997.57
2018-08-07T06:22:03.980Z,997.59
2018-08-07T06:23:03.983Z,997.60
2018-08-07T06:24:03.994Z,997.59
2018-08-07T06:25:03.993Z,997.61
2018-08-07T06:26:03.993Z,997.60
2018-08-07T06:27:03.999Z,997.62
2018-08-07T06:28:04.003Z,997.61
2018-08-07T06:29:04.006Z,997.63
2018-08-07T06:30:04.010Z,997.64
2018-08-07T06:31:04.015Z,997.62
2018-08-07T06:32:04.025Z,997.63
2018-08-07T06:33:04.062Z,997.62
2018-08-07T06:34:04.025Z,997.61
2018-08-07T06:35:04.034Z,997.64
2018-08-07T06:36:04.033Z,997.63
2018-08-07T06:37:04.080Z,997.63
2018-08-07T06:38:04.040Z,997.64
2018-08-07T06:39:04.043Z,997.61
2018-08-07T06:40:04.047Z,997.63
2018-08-07T06:41:04.052Z,997.65
2018-08-07T06:42:04.059Z,997.62
2018-08-07T06:43:04.166Z,997.66
2018-08-07T06:44:04.063Z,997.62
2018-08-07T06:45:04.069Z,997.67
2018-08-07T06:46:04.071Z,997.66
2018-08-07T06:47:04.075Z,997.69
2018-08-07T06:48:04.091Z,997.64
2018-08-07T06:49:04.083Z,997.63
2018-08-07T06:50:04.086Z,997.63
2018-08-07T06:51:04.092Z,997.59
2018-08-07T06:52:04.092Z,997.58
2018-08-07T06:53:04.095Z,997.59
2018-08-07T06:54:04.101Z,997.56
2018-08-07T06:55:04.103Z,997.51
2018-08-07T06:56:04.110Z,997.54
2018-08-07T06:57:04.186Z,997.51
2018-08-07T06:58:04.113Z,997.54
2018-08-07T06:59:04.961Z,997.54
2018-08-07T07:00:04.121Z,997.53
2018-08-07T07:01:04.151Z,997.55
2018-08-07T07:02:04.127Z,997.54
2018-08-07T07:03:04.141Z,997.51
2018-08-07T07:04:04.161Z,997.52
2018-08-07T07:05:04.140Z,997.54
2018-08-07T07:06:04.156Z,997.49
2018-08-07T07:07:04.556Z,997.47
2018-08-07T07:08:04.160Z,997.46
2018-08-07T07:09:04.154Z,997.43
2018-08-07T07:10:04.159Z,997.46
2018-08-07T07:11:04.162Z,997.42
2018-08-07T07:12:04.166Z,997.42
2018-08-07T07:13:04.171Z,997.43
2018-08-07T07:14:04.174Z,997.43
2018-08-07T07:15:04.188Z,997.42
2018-08-07T07:16:04.185Z,997.39
2018-08-07T07:17:04.203Z,997.41
2018-08-07T07:18:04.190Z,997.35
2018-08-07T07:19:04.195Z,997.34
2018-08-07T07:20:04.204Z,997.34
2018-08-07T07:21:04.277Z,997.32
2018-08-07T07:22:04.205Z,997.34
2018-08-07T07:23:04.220Z,997.32
2018-08-07T07:24:04.334Z,997.30
2018-08-07T07:25:04.221Z,997.29
2018-08-07T07:26:04.223Z,997.27
2018-08-07T07:27:04.412Z,997.30
2018-08-07T07:28:04.230Z,997.26
2018-08-07T07:29:04.237Z,997.30
2018-08-07T07:30:04.239Z,997.27
2018-08-07T07:31:04.243Z,997.27
2018-08-07T07:32:04.248Z,997.27
2018-08-07T07:33:04.255Z,997.28
2018-08-07T07:34:04.319Z,997.27
2018-08-07T07:35:04.404Z,997.24
2018-08-07T07:36:04.264Z,997.27
2018-08-07T07:37:04.270Z,997.27
2018-08-07T07:38:04.278Z,997.28
2018-08-07T07:39:04.284Z,997.26
2018-08-07T07:40:04.319Z,997.24
2018-08-07T07:41:04.292Z,997.24
2018-08-07T07:42:04.324Z,997.21
2018-08-07T07:43:04.294Z,997.23
2018-08-07T07:44:04.300Z,997.18
2018-08-07T07:45:04.314Z,997.18
2018-08-07T07:46:04.333Z,997.14
2018-08-07T07:47:04.357Z,997.17
2018-08-07T07:48:04.318Z,997.13
2018-08-07T07:49:04.342Z,997.10
2018-08-07T07:50:04.325Z,997.13
2018-08-07T07:51:04.330Z,997.13
2018-08-07T07:52:04.591Z,997.12
2018-08-07T07:53:04.340Z,997.12
2018-08-07T07:54:04.417Z,997.11
2018-08-07T07:55:04.351Z,997.11
2018-08-07T07:56:04.352Z,997.11
2018-08-07T07:57:04.365Z,997.12
2018-08-07T07:58:04.386Z,997.09
2018-08-07T07:59:04.367Z,997.10
2018-08-07T08:00:04.373Z,997.13
2018-08-07T08:01:05.644Z,997.12
2018-08-07T08:02:04.384Z,997.08
2018-08-07T08:03:04.386Z,997.12
2018-08-07T08:04:04.391Z,997.12
2018-08-07T08:05:04.404Z,997.10
2018-08-07T08:06:06.334Z,997.08
2018-08-07T08:07:04.410Z,997.11
2018-08-07T08:08:04.412Z,997.11
2018-08-07T08:09:04.419Z,997.08
2018-08-07T08:10:04.417Z,997.09
2018-08-07T08:11:04.450Z,997.09
2018-08-07T08:12:04.472Z,997.05
2018-08-07T08:13:04.435Z,997.11
2018-08-07T08:14:04.436Z,997.08
2018-08-07T08:15:04.456Z,997.10
2018-08-07T08:16:04.447Z,997.10
2018-08-07T08:17:04.454Z,997.12
2018-08-07T08:18:04.456Z,997.10
2018-08-07T08:19:04.464Z,997.09
2018-08-07T08:20:04.470Z,997.10
2018-08-07T08:21:04.472Z,997.07
2018-08-07T08:22:04.476Z,997.10
2018-08-07T08:23:04.480Z,997.09
2018-08-07T08:24:04.499Z,997.09
2018-08-07T08:25:04.491Z,997.08
2018-08-07T08:26:04.501Z,997.06
2018-08-07T08:27:04.501Z,997.09
2018-08-07T08:28:04.507Z,997.07
2018-08-07T08:29:04.690Z,997.02
2018-08-07T08:30:04.650Z,997.02
2018-08-07T08:31:04.521Z,997.07
2018-08-07T08:32:04.527Z,997.05
2018-08-07T08:33:04.556Z,997.06
2018-08-07T08:34:04.537Z,997.06
2018-08-07T08:35:04.558Z,997.05
2018-08-07T08:36:04.547Z,997.01
2018-08-07T08:37:04.553Z,996.98
2018-08-07T08:38:04.771Z,997.01
2018-08-07T08:39:04.568Z,997.03
2018-08-07T08:40:04.568Z,997.00
2018-08-07T08:41:04.577Z,996.99
2018-08-07T08:42:04.586Z,997.01
2018-08-07T08:43:04.582Z,996.99
2018-08-07T08:44:04.837Z,996.99
2018-08-07T08:45:04.593Z,996.97
2018-08-07T08:46:04.597Z,996.95
2018-08-07T08:47:04.602Z,996.96
2018-08-07T08:48:04.694Z,996.93
2018-08-07T08:49:04.614Z,996.93
2018-08-07T08:50:04.619Z,996.90
2018-08-07T08:51:04.946Z,996.88
2018-08-07T08:52:04.630Z,996.87
2018-08-07T08:53:04.634Z,996.86
2018-08-07T08:54:04.664Z,996.86
2018-08-07T08:55:04.647Z,996.87
2018-08-07T08:56:04.781Z,996.86
2018-08-07T08:57:04.659Z,996.84
2018-08-07T08:58:04.777Z,996.86
2018-08-07T08:59:04.669Z,996.87
2018-08-07T09:00:04.678Z,996.83
2018-08-07T09:01:04.680Z,996.82
2018-08-07T09:02:04.694Z,996.79
2018-08-07T09:03:04.766Z,996.79
2018-08-07T09:04:04.744Z,996.78
2018-08-07T09:05:04.707Z,996.79
2018-08-07T09:06:04.724Z,996.81
2018-08-07T09:07:04.719Z,996.83
2018-08-07T09:08:04.728Z,996.83
2018-08-07T09:09:04.735Z,996.81
2018-08-07T09:10:04.750Z,996.79
2018-08-07T09:11:04.751Z,996.75
2018-08-07T09:12:04.761Z,996.73
2018-08-07T09:13:04.918Z,996.73
2018-08-07T09:14:04.776Z,996.72
2018-08-07T09:15:04.785Z,996.67
2018-08-07T09:16:04.794Z,996.70
2018-08-07T09:17:04.803Z,996.66
2018-08-07T09:18:04.812Z,996.71
2018-08-07T09:19:05.259Z,996.70
2018-08-07T09:20:04.851Z,996.71
2018-08-07T09:21:04.928Z,996.63
2018-08-07T09:22:04.854Z,996.67
2018-08-07T09:23:04.864Z,996.69
2018-08-07T09:24:04.875Z,996.63
2018-08-07T09:25:04.887Z,996.59
2018-08-07T09:26:04.908Z,996.57
2018-08-07T09:27:04.941Z,996.53
2018-08-07T09:28:04.945Z,996.56
2018-08-07T09:29:05.860Z,996.53
2018-08-07T09:30:04.943Z,996.54
2018-08-07T09:31:04.958Z,996.57
2018-08-07T09:32:04.973Z,996.57
2018-08-07T09:33:05.111Z,996.55
2018-08-07T09:34:04.995Z,996.51
2018-08-07T09:35:05.007Z,996.50
2018-08-07T09:36:05.024Z,996.48
2018-08-07T09:37:05.034Z,996.47
2018-08-07T09:38:05.049Z,996.50
2018-08-07T09:39:05.059Z,996.50
2018-08-07T09:40:05.105Z,996.50
2018-08-07T09:41:05.086Z,996.47
2018-08-07T09:42:05.099Z,996.39
2018-08-07T09:43:05.121Z,996.44
2018-08-07T09:44:05.126Z,996.38
2018-08-07T09:45:05.141Z,996.36
2018-08-07T09:46:05.151Z,996.34
2018-08-07T09:47:05.166Z,996.36
2018-08-07T09:48:05.184Z,996.39
2018-08-07T09:49:05.191Z,996.34
2018-08-07T09:50:05.202Z,996.29
2018-08-07T09:51:05.214Z,996.36
2018-08-07T09:52:05.233Z,996.34
2018-08-07T09:53:05.234Z,996.34
2018-08-07T09:54:05.255Z,996.34
2018-08-07T09:55:05.257Z,996.30
2018-08-07T09:56:05.267Z,996.27
2018-08-07T09:57:05.276Z,996.24
2018-08-07T09:58:05.303Z,996.32
2018-08-07T09:59:05.663Z,996.29
2018-08-07T10:00:05.314Z,996.30
2018-08-07T10:01:05.322Z,996.24
2018-08-07T10:02:05.326Z,996.16
2018-08-07T10:03:05.335Z,996.16
2018-08-07T10:04:05.348Z,996.17
2018-08-07T10:05:05.394Z,996.14
2018-08-07T10:06:05.364Z,996.16
2018-08-07T10:07:05.373Z,996.13
2018-08-07T10:08:05.382Z,996.12
2018-08-07T10:09:05.391Z,996.11
2018-08-07T10:10:05.399Z,996.09
2018-08-07T10:11:05.408Z,996.09
2018-08-07T10:12:05.427Z,996.06
2018-08-07T10:13:05.429Z,996.01
2018-08-07T10:14:05.464Z,996.05
2018-08-07T10:15:05.460Z,996.01
2018-08-07T10:16:05.453Z,995.99
2018-08-07T10:17:05.463Z,995.98
2018-08-07T10:18:05.471Z,995.93
2018-08-07T10:19:05.480Z,995.96
2018-08-07T10:20:05.485Z,995.93
2018-08-07T10:21:05.495Z,995.90
2018-08-07T10:22:05.501Z,995.88
2018-08-07T10:23:05.512Z,995.95
2018-08-07T10:24:05.519Z,995.92
2018-08-07T10:25:05.543Z,995.91
2018-08-07T10:26:05.543Z,995.89
2018-08-07T10:27:05.543Z,995.90
2018-08-07T10:28:05.552Z,995.84
2018-08-07T10:29:05.559Z,995.85
2018-08-07T10:30:05.567Z,995.82
2018-08-07T10:31:05.576Z,995.87
2018-08-07T10:32:05.587Z,995.80
2018-08-07T10:33:05.594Z,995.83
2018-08-07T10:34:05.601Z,995.79
2018-08-07T10:35:05.667Z,995.78
2018-08-07T10:36:05.622Z,995.84
2018-08-07T10:37:05.630Z,995.81
2018-08-07T10:38:05.631Z,995.80
2018-08-07T10:39:05.655Z,995.79
2018-08-07T10:40:05.657Z,995.74
2018-08-07T10:41:05.870Z,995.74
2018-08-07T10:42:05.673Z,995.76
2018-08-07T10:43:05.743Z,995.74
2018-08-07T10:44:05.699Z,995.73
2018-08-07T10:45:05.704Z,995.71
2018-08-07T10:46:05.715Z,995.67
2018-08-07T10:47:05.723Z,995.71
2018-08-07T10:48:05.736Z,995.71
2018-08-07T10:49:05.767Z,995.71
2018-08-07T10:50:05.760Z,995.67
2018-08-07T10:51:05.776Z,995.71
2018-08-07T10:52:05.788Z,995.71
2018-08-07T10:53:05.803Z,995.69
2018-08-07T10:54:06.035Z,995.69
2018-08-07T10:55:05.827Z,995.65
2018-08-07T10:56:06.547Z,995.66
2018-08-07T10:57:05.860Z,995.63
2018-08-07T10:58:05.873Z,995.58
2018-08-07T10:59:05.893Z,995.58
2018-08-07T11:00:05.909Z,995.56
2018-08-07T11:01:05.921Z,995.55
2018-08-07T11:02:05.937Z,995.51
2018-08-07T11:03:05.958Z,995.58
2018-08-07T11:04:05.971Z,995.62
2018-08-07T11:05:05.989Z,995.57
2018-08-07T11:06:06.008Z,995.58
2018-08-07T11:07:06.170Z,995.53
2018-08-07T11:08:06.901Z,995.57
2018-08-07T11:09:06.253Z,995.52
2018-08-07T11:10:06.076Z,995.50
2018-08-07T11:11:06.092Z,995.49
2018-08-07T11:12:06.111Z,995.57
2018-08-07T11:13:06.131Z,995.58
2018-08-07T11:14:07.013Z,995.56
2018-08-07T11:15:06.164Z,995.56
2018-08-07T11:16:06.194Z,995.54
2018-08-07T11:17:06.206Z,995.59
2018-08-07T11:18:06.314Z,995.51
2018-08-07T11:19:06.238Z,995.44
2018-08-07T11:20:06.257Z,995.50
2018-08-07T11:21:06.348Z,995.46
2018-08-07T11:22:06.312Z,995.49
2018-08-07T11:23:06.318Z,995.43
2018-08-07T11:24:06.338Z,995.42
2018-08-07T11:25:07.224Z,995.45
2018-08-07T11:26:06.384Z,995.39
2018-08-07T11:27:06.406Z,995.42
2018-08-07T11:28:06.414Z,995.37
2018-08-07T11:29:06.434Z,995.41
2018-08-07T11:30:06.453Z,995.42
2018-08-07T11:31:06.473Z,995.38
2018-08-07T11:32:06.508Z,995.35
2018-08-07T11:33:06.548Z,995.32
2018-08-07T11:34:06.533Z,995.35
2018-08-07T11:35:06.553Z,995.31
2018-08-07T11:36:06.575Z,995.31
2018-08-07T11:37:06.598Z,995.31
2018-08-07T11:38:06.762Z,995.23
2018-08-07T11:39:06.638Z,995.28
2018-08-07T11:40:06.654Z,995.23
2018-08-07T11:41:06.676Z,995.26
2018-08-07T11:42:06.695Z,995.23
2018-08-07T11:43:07.495Z,995.32
2018-08-07T11:44:06.736Z,995.29
2018-08-07T11:45:06.755Z,995.27
2018-08-07T11:46:06.780Z,995.21
2018-08-07T11:47:06.792Z,995.27
2018-08-07T11:48:06.936Z,995.23
2018-08-07T11:49:06.838Z,995.25
2018-08-07T11:50:06.849Z,995.21
2018-08-07T11:51:06.864Z,995.20
2018-08-07T11:52:06.885Z,995.24
2018-08-07T11:53:06.901Z,995.28
2018-08-07T11:54:06.917Z,995.24
2018-08-07T11:55:06.930Z,995.30
2018-08-07T11:56:06.953Z,995.28
2018-08-07T11:57:06.964Z,995.21
2018-08-07T11:58:06.975Z,995.21
2018-08-07T11:59:07.249Z,995.27
2018-08-07T12:00:07.026Z,995.27
2018-08-07T12:01:07.018Z,995.25
2018-08-07T12:02:07.032Z,995.25
2018-08-07T12:03:07.092Z,995.27
2018-08-07T12:04:07.058Z,995.27
2018-08-07T12:05:07.074Z,995.20
2018-08-07T12:06:07.084Z,995.18
2018-08-07T12:07:07.246Z,995.22
2018-08-07T12:08:07.205Z,995.23
2018-08-07T12:09:07.132Z,995.22
2018-08-07T12:10:07.139Z,995.19
2018-08-07T12:11:07.147Z,995.12
2018-08-07T12:12:07.160Z,995.12
2018-08-07T12:13:07.168Z,995.08
2018-08-07T12:14:07.178Z,995.13
2018-08-07T12:15:07.189Z,995.15
2018-08-07T12:16:07.244Z,995.14
2018-08-07T12:17:07.248Z,995.13
2018-08-07T12:18:07.223Z,995.09
2018-08-07T12:19:07.243Z,995.09
2018-08-07T12:20:07.363Z,995.07
2018-08-07T12:21:07.254Z,995.03
2018-08-07T12:22:07.270Z,995.06
2018-08-07T12:23:07.276Z,995.05
2018-08-07T12:24:07.292Z,995.03
2018-08-07T12:25:07.308Z,995.04
2018-08-07T12:26:07.307Z,995.02
2018-08-07T12:27:07.319Z,994.98
2018-08-07T12:28:08.360Z,994.94